sensor_id;sensor_type;location;lat;lon;timestamp;temperature;humidity
63017;DHT22;50274;45.640;11.756;2022-11-25T00:02:18;6.50;70.70
63017;DHT22;50274;45.640;11.756;2022-11-25T00:04:44;6.50;70.80
63017;DHT22;50274;45.640;11.756;2022-11-25T00:07:10;6.40;70.80
63017;DHT22;50274;45.640;11.756;2022-11-25T00:09:36;6.40;70.90
63017;DHT22;50274;45.640;11.756;2022-11-25T00:12:02;6.40;71.00
63017;DHT22;50274;45.640;11.756;2022-11-25T00:14:28;6.40;71.20
63017;DHT22;50274;45.640;11.756;2022-11-25T00:16:53;6.40;71.30
63017;DHT22;50274;45.640;11.756;2022-11-25T00:19:19;6.30;71.50
63017;DHT22;50274;45.640;11.756;2022-11-25T00:21:45;6.30;71.50
63017;DHT22;50274;45.640;11.756;2022-11-25T00:24:13;6.30;71.70
63017;DHT22;50274;45.640;11.756;2022-11-25T00:26:39;6.30;71.70
63017;DHT22;50274;45.640;11.756;2022-11-25T00:29:06;6.30;71.80
63017;DHT22;50274;45.640;11.756;2022-11-25T00:31:35;6.40;71.70
63017;DHT22;50274;45.640;11.756;2022-11-25T00:34:01;6.40;71.80
63017;DHT22;50274;45.640;11.756;2022-11-25T00:36:33;6.50;71.80
63017;DHT22;50274;45.640;11.756;2022-11-25T00:39:05;6.50;71.70
63017;DHT22;50274;45.640;11.756;2022-11-25T00:41:32;6.50;71.60
63017;DHT22;50274;45.640;11.756;2022-11-25T00:44:17;6.50;71.80
63017;DHT22;50274;45.640;11.756;2022-11-25T00:47:14;6.50;71.80
63017;DHT22;50274;45.640;11.756;2022-11-25T00:49:44;6.50;71.80
63017;DHT22;50274;45.640;11.756;2022-11-25T00:52:13;6.50;71.80
63017;DHT22;50274;45.640;11.756;2022-11-25T00:54:39;6.50;71.70
63017;DHT22;50274;45.640;11.756;2022-11-25T00:57:05;6.60;71.80
63017;DHT22;50274;45.640;11.756;2022-11-25T00:59:31;6.60;71.80
63017;DHT22;50274;45.640;11.756;2022-11-25T01:01:58;6.60;71.80
63017;DHT22;50274;45.640;11.756;2022-11-25T01:04:24;6.60;71.80
63017;DHT22;50274;45.640;11.756;2022-11-25T01:06:49;6.70;71.80
63017;DHT22;50274;45.640;11.756;2022-11-25T01:09:15;6.60;71.80
63017;DHT22;50274;45.640;11.756;2022-11-25T01:11:41;6.60;71.80
63017;DHT22;50274;45.640;11.756;2022-11-25T01:14:07;6.60;71.90
63017;DHT22;50274;45.640;11.756;2022-11-25T01:16:33;6.70;71.80
63017;DHT22;50274;45.640;11.756;2022-11-25T01:18:59;6.70;71.90
63017;DHT22;50274;45.640;11.756;2022-11-25T01:21:29;6.70;72.00
63017;DHT22;50274;45.640;11.756;2022-11-25T01:23:55;6.70;72.00
63017;DHT22;50274;45.640;11.756;2022-11-25T01:26:23;6.60;72.00
63017;DHT22;50274;45.640;11.756;2022-11-25T01:28:54;6.60;72.00
63017;DHT22;50274;45.640;11.756;2022-11-25T01:31:22;6.60;72.00
63017;DHT22;50274;45.640;11.756;2022-11-25T01:33:55;6.60;72.10
63017;DHT22;50274;45.640;11.756;2022-11-25T01:36:22;6.60;72.10
63017;DHT22;50274;45.640;11.756;2022-11-25T01:38:54;6.60;72.20
63017;DHT22;50274;45.640;11.756;2022-11-25T01:41:21;6.60;72.30
63017;DHT22;50274;45.640;11.756;2022-11-25T01:44:21;6.60;72.40
63017;DHT22;50274;45.640;11.756;2022-11-25T01:46:52;6.60;72.40
63017;DHT22;50274;45.640;11.756;2022-11-25T01:49:33;6.60;72.40
63017;DHT22;50274;45.640;11.756;2022-11-25T01:55:24;6.70;72.40
63017;DHT22;50274;45.640;11.756;2022-11-25T01:58:08;6.70;72.30
63017;DHT22;50274;45.640;11.756;2022-11-25T02:00:37;6.70;72.30
63017;DHT22;50274;45.640;11.756;2022-11-25T02:03:03;6.70;72.40
63017;DHT22;50274;45.640;11.756;2022-11-25T02:08:15;6.80;72.40
63017;DHT22;50274;45.640;11.756;2022-11-25T02:10:42;6.80;72.40
63017;DHT22;50274;45.640;11.756;2022-11-25T02:13:10;6.80;72.30
63017;DHT22;50274;45.640;11.756;2022-11-25T02:15:36;6.80;72.30
63017;DHT22;50274;45.640;11.756;2022-11-25T02:18:02;6.80;72.40
63017;DHT22;50274;45.640;11.756;2022-11-25T02:20:28;6.80;72.40
63017;DHT22;50274;45.640;11.756;2022-11-25T02:25:44;6.80;72.40
63017;DHT22;50274;45.640;11.756;2022-11-25T02:28:17;6.80;72.30
63017;DHT22;50274;45.640;11.756;2022-11-25T02:30:44;6.80;72.40
63017;DHT22;50274;45.640;11.756;2022-11-25T02:33:11;6.80;72.40
63017;DHT22;50274;45.640;11.756;2022-11-25T02:35:51;6.70;72.40
63017;DHT22;50274;45.640;11.756;2022-11-25T02:38:43;6.70;72.50
63017;DHT22;50274;45.640;11.756;2022-11-25T02:41:15;6.70;72.60
63017;DHT22;50274;45.640;11.756;2022-11-25T02:43:43;6.70;72.60
63017;DHT22;50274;45.640;11.756;2022-11-25T02:46:11;6.60;72.70
63017;DHT22;50274;45.640;11.756;2022-11-25T02:48:39;6.60;72.80
63017;DHT22;50274;45.640;11.756;2022-11-25T02:51:07;6.60;72.90
63017;DHT22;50274;45.640;11.756;2022-11-25T02:53:34;6.60;73.00
63017;DHT22;50274;45.640;11.756;2022-11-25T02:55:59;6.50;73.10
63017;DHT22;50274;45.640;11.756;2022-11-25T02:58:26;6.50;73.10
63017;DHT22;50274;45.640;11.756;2022-11-25T03:00:52;6.50;73.20
63017;DHT22;50274;45.640;11.756;2022-11-25T03:03:18;6.60;73.20
63017;DHT22;50274;45.640;11.756;2022-11-25T03:05:44;6.50;73.30
63017;DHT22;50274;45.640;11.756;2022-11-25T03:08:10;6.60;73.50
63017;DHT22;50274;45.640;11.756;2022-11-25T03:10:36;6.50;73.50
63017;DHT22;50274;45.640;11.756;2022-11-25T03:13:03;6.50;73.60
63017;DHT22;50274;45.640;11.756;2022-11-25T03:15:30;6.50;73.80
63017;DHT22;50274;45.640;11.756;2022-11-25T03:17:56;6.50;73.80
63017;DHT22;50274;45.640;11.756;2022-11-25T03:20:23;6.50;73.70
63017;DHT22;50274;45.640;11.756;2022-11-25T03:22:49;6.50;73.60
63017;DHT22;50274;45.640;11.756;2022-11-25T03:25:16;6.50;73.80
63017;DHT22;50274;45.640;11.756;2022-11-25T03:27:42;6.60;73.70
63017;DHT22;50274;45.640;11.756;2022-11-25T03:30:14;6.60;73.70
63017;DHT22;50274;45.640;11.756;2022-11-25T03:32:40;6.60;73.70
63017;DHT22;50274;45.640;11.756;2022-11-25T03:35:06;6.60;73.60
63017;DHT22;50274;45.640;11.756;2022-11-25T03:37:32;6.60;73.60
63017;DHT22;50274;45.640;11.756;2022-11-25T03:39:58;6.70;73.50
63017;DHT22;50274;45.640;11.756;2022-11-25T03:42:24;6.70;73.50
63017;DHT22;50274;45.640;11.756;2022-11-25T03:44:50;6.60;73.50
63017;DHT22;50274;45.640;11.756;2022-11-25T03:47:16;6.60;73.50
63017;DHT22;50274;45.640;11.756;2022-11-25T03:49:41;6.60;73.50
63017;DHT22;50274;45.640;11.756;2022-11-25T03:52:07;6.60;73.60
63017;DHT22;50274;45.640;11.756;2022-11-25T03:54:33;6.50;73.70
63017;DHT22;50274;45.640;11.756;2022-11-25T03:56:59;6.50;73.70
63017;DHT22;50274;45.640;11.756;2022-11-25T03:59:25;6.60;73.80
63017;DHT22;50274;45.640;11.756;2022-11-25T04:01:51;6.60;73.80
63017;DHT22;50274;45.640;11.756;2022-11-25T04:04:16;6.50;73.80
63017;DHT22;50274;45.640;11.756;2022-11-25T04:06:42;6.50;73.80
63017;DHT22;50274;45.640;11.756;2022-11-25T04:09:09;6.50;73.80
63017;DHT22;50274;45.640;11.756;2022-11-25T04:11:36;6.50;73.80
63017;DHT22;50274;45.640;11.756;2022-11-25T04:14:22;6.60;73.80
63017;DHT22;50274;45.640;11.756;2022-11-25T04:16:50;6.60;73.80
63017;DHT22;50274;45.640;11.756;2022-11-25T04:19:16;6.60;73.70
63017;DHT22;50274;45.640;11.756;2022-11-25T04:21:42;6.50;73.70
63017;DHT22;50274;45.640;11.756;2022-11-25T04:24:08;6.60;73.70
63017;DHT22;50274;45.640;11.756;2022-11-25T04:26:33;6.50;73.70
63017;DHT22;50274;45.640;11.756;2022-11-25T04:28:59;6.50;73.70
63017;DHT22;50274;45.640;11.756;2022-11-25T04:31:25;6.50;73.70
63017;DHT22;50274;45.640;11.756;2022-11-25T04:33:51;6.50;73.80
63017;DHT22;50274;45.640;11.756;2022-11-25T04:36:17;6.50;73.90
63017;DHT22;50274;45.640;11.756;2022-11-25T04:38:43;6.50;73.90
63017;DHT22;50274;45.640;11.756;2022-11-25T04:41:09;6.50;73.80
63017;DHT22;50274;45.640;11.756;2022-11-25T04:43:34;6.50;73.90
63017;DHT22;50274;45.640;11.756;2022-11-25T04:46:01;6.50;73.90
63017;DHT22;50274;45.640;11.756;2022-11-25T04:48:27;6.50;74.00
63017;DHT22;50274;45.640;11.756;2022-11-25T04:50:54;6.50;74.00
63017;DHT22;50274;45.640;11.756;2022-11-25T04:53:20;6.40;74.10
63017;DHT22;50274;45.640;11.756;2022-11-25T04:55:46;6.40;74.00
63017;DHT22;50274;45.640;11.756;2022-11-25T04:58:12;6.40;74.10
63017;DHT22;50274;45.640;11.756;2022-11-25T05:00:38;6.50;74.20
63017;DHT22;50274;45.640;11.756;2022-11-25T05:03:05;6.40;74.10
63017;DHT22;50274;45.640;11.756;2022-11-25T05:05:31;6.40;74.10
63017;DHT22;50274;45.640;11.756;2022-11-25T05:08:00;6.40;74.20
63017;DHT22;50274;45.640;11.756;2022-11-25T05:10:36;6.40;74.20
63017;DHT22;50274;45.640;11.756;2022-11-25T05:13:19;6.50;74.20
63017;DHT22;50274;45.640;11.756;2022-11-25T05:15:58;6.40;74.30
63017;DHT22;50274;45.640;11.756;2022-11-25T05:18:25;6.40;74.30
63017;DHT22;50274;45.640;11.756;2022-11-25T05:20:51;6.50;74.20
63017;DHT22;50274;45.640;11.756;2022-11-25T05:23:17;6.50;74.20
63017;DHT22;50274;45.640;11.756;2022-11-25T05:25:44;6.50;74.20
63017;DHT22;50274;45.640;11.756;2022-11-25T05:28:10;6.50;74.20
63017;DHT22;50274;45.640;11.756;2022-11-25T05:30:37;6.50;74.20
63017;DHT22;50274;45.640;11.756;2022-11-25T05:33:02;6.50;74.20
63017;DHT22;50274;45.640;11.756;2022-11-25T05:35:31;6.50;74.20
63017;DHT22;50274;45.640;11.756;2022-11-25T05:37:58;6.40;74.30
63017;DHT22;50274;45.640;11.756;2022-11-25T05:40:25;6.50;74.30
63017;DHT22;50274;45.640;11.756;2022-11-25T05:42:51;6.40;74.20
63017;DHT22;50274;45.640;11.756;2022-11-25T05:45:17;6.40;74.50
63017;DHT22;50274;45.640;11.756;2022-11-25T05:47:43;6.40;74.70
63017;DHT22;50274;45.640;11.756;2022-11-25T05:50:09;6.30;74.50
63017;DHT22;50274;45.640;11.756;2022-11-25T05:52:35;6.40;74.60
63017;DHT22;50274;45.640;11.756;2022-11-25T05:55:01;6.40;74.60
63017;DHT22;50274;45.640;11.756;2022-11-25T05:57:26;6.40;74.50
63017;DHT22;50274;45.640;11.756;2022-11-25T05:59:53;6.40;74.50
63017;DHT22;50274;45.640;11.756;2022-11-25T06:02:19;6.40;74.40
63017;DHT22;50274;45.640;11.756;2022-11-25T06:04:45;6.50;74.50
63017;DHT22;50274;45.640;11.756;2022-11-25T06:07:11;6.50;74.30
63017;DHT22;50274;45.640;11.756;2022-11-25T06:09:37;6.40;74.30
63017;DHT22;50274;45.640;11.756;2022-11-25T06:12:02;6.40;74.40
63017;DHT22;50274;45.640;11.756;2022-11-25T06:14:28;6.40;74.50
63017;DHT22;50274;45.640;11.756;2022-11-25T06:16:54;6.40;74.50
63017;DHT22;50274;45.640;11.756;2022-11-25T06:19:20;6.50;74.50
63017;DHT22;50274;45.640;11.756;2022-11-25T06:21:46;6.50;74.50
63017;DHT22;50274;45.640;11.756;2022-11-25T06:24:13;6.50;74.50
63017;DHT22;50274;45.640;11.756;2022-11-25T06:26:38;6.50;74.40
63017;DHT22;50274;45.640;11.756;2022-11-25T06:29:04;6.40;74.60
63017;DHT22;50274;45.640;11.756;2022-11-25T06:31:30;6.40;74.60
63017;DHT22;50274;45.640;11.756;2022-11-25T06:33:56;6.40;74.60
63017;DHT22;50274;45.640;11.756;2022-11-25T06:36:22;6.40;74.80
63017;DHT22;50274;45.640;11.756;2022-11-25T06:38:50;6.40;74.80
63017;DHT22;50274;45.640;11.756;2022-11-25T06:41:17;6.50;74.80
63017;DHT22;50274;45.640;11.756;2022-11-25T06:43:43;6.50;75.10
63017;DHT22;50274;45.640;11.756;2022-11-25T06:46:12;6.50;74.70
63017;DHT22;50274;45.640;11.756;2022-11-25T06:48:38;6.40;74.80
63017;DHT22;50274;45.640;11.756;2022-11-25T06:51:12;6.50;74.80
63017;DHT22;50274;45.640;11.756;2022-11-25T06:53:40;6.50;74.80
63017;DHT22;50274;45.640;11.756;2022-11-25T06:58:39;6.50;74.90
63017;DHT22;50274;45.640;11.756;2022-11-25T07:01:12;6.60;75.10
63017;DHT22;50274;45.640;11.756;2022-11-25T07:03:38;6.60;74.80
63017;DHT22;50274;45.640;11.756;2022-11-25T07:06:05;6.60;74.80
63017;DHT22;50274;45.640;11.756;2022-11-25T07:08:30;6.60;74.80
63017;DHT22;50274;45.640;11.756;2022-11-25T07:11:08;6.70;74.60
63017;DHT22;50274;45.640;11.756;2022-11-25T07:13:35;6.70;74.60
63017;DHT22;50274;45.640;11.756;2022-11-25T07:16:02;6.70;74.60
63017;DHT22;50274;45.640;11.756;2022-11-25T07:18:33;6.70;74.60
63017;DHT22;50274;45.640;11.756;2022-11-25T07:21:07;6.80;74.50
63017;DHT22;50274;45.640;11.756;2022-11-25T07:23:35;6.70;74.50
63017;DHT22;50274;45.640;11.756;2022-11-25T07:28:32;6.80;74.50
63017;DHT22;50274;45.640;11.756;2022-11-25T07:31:05;6.90;74.50
63017;DHT22;50274;45.640;11.756;2022-11-25T07:33:34;6.90;74.50
63017;DHT22;50274;45.640;11.756;2022-11-25T07:36:04;7.00;74.50
63017;DHT22;50274;45.640;11.756;2022-11-25T07:38:32;7.00;74.60
63017;DHT22;50274;45.640;11.756;2022-11-25T07:41:14;7.10;74.40
63017;DHT22;50274;45.640;11.756;2022-11-25T07:43:44;7.10;74.40
63017;DHT22;50274;45.640;11.756;2022-11-25T07:48:44;7.30;74.70
63017;DHT22;50274;45.640;11.756;2022-11-25T07:51:21;7.40;74.40
63017;DHT22;50274;45.640;11.756;2022-11-25T07:53:47;7.50;74.20
63017;DHT22;50274;45.640;11.756;2022-11-25T07:56:14;7.60;74.20
63017;DHT22;50274;45.640;11.756;2022-11-25T07:58:40;7.70;74.00
63017;DHT22;50274;45.640;11.756;2022-11-25T08:01:08;7.80;73.80
63017;DHT22;50274;45.640;11.756;2022-11-25T08:03:37;7.90;73.70
63017;DHT22;50274;45.640;11.756;2022-11-25T08:06:08;7.90;73.60
63017;DHT22;50274;45.640;11.756;2022-11-25T08:08:38;7.90;73.50
63017;DHT22;50274;45.640;11.756;2022-11-25T08:11:08;8.00;73.50
63017;DHT22;50274;45.640;11.756;2022-11-25T08:13:35;8.10;73.50
63017;DHT22;50274;45.640;11.756;2022-11-25T08:16:01;8.20;73.40
63017;DHT22;50274;45.640;11.756;2022-11-25T08:18:27;8.30;73.30
63017;DHT22;50274;45.640;11.756;2022-11-25T08:21:01;8.40;73.20
63017;DHT22;50274;45.640;11.756;2022-11-25T08:23:30;8.50;73.10
63017;DHT22;50274;45.640;11.756;2022-11-25T08:25:56;8.70;72.80
63017;DHT22;50274;45.640;11.756;2022-11-25T08:28:23;8.80;72.60
63017;DHT22;50274;45.640;11.756;2022-11-25T08:30:49;8.90;72.30
63017;DHT22;50274;45.640;11.756;2022-11-25T08:33:15;9.00;72.00
63017;DHT22;50274;45.640;11.756;2022-11-25T08:35:43;9.10;71.60
63017;DHT22;50274;45.640;11.756;2022-11-25T08:38:10;9.20;71.40
63017;DHT22;50274;45.640;11.756;2022-11-25T08:40:37;9.30;71.40
63017;DHT22;50274;45.640;11.756;2022-11-25T08:43:03;9.40;71.30
63017;DHT22;50274;45.640;11.756;2022-11-25T08:45:29;9.60;71.00
63017;DHT22;50274;45.640;11.756;2022-11-25T08:47:55;9.80;70.60
63017;DHT22;50274;45.640;11.756;2022-11-25T08:50:22;10.00;70.20
63017;DHT22;50274;45.640;11.756;2022-11-25T08:52:51;10.20;69.90
63017;DHT22;50274;45.640;11.756;2022-11-25T08:55:16;10.40;69.60
63017;DHT22;50274;45.640;11.756;2022-11-25T08:57:43;10.50;69.00
63017;DHT22;50274;45.640;11.756;2022-11-25T09:00:10;10.70;68.30
63017;DHT22;50274;45.640;11.756;2022-11-25T09:02:36;10.80;67.90
63017;DHT22;50274;45.640;11.756;2022-11-25T09:05:02;11.00;67.30
63017;DHT22;50274;45.640;11.756;2022-11-25T09:07:27;11.20;67.20
63017;DHT22;50274;45.640;11.756;2022-11-25T09:09:54;11.30;66.70
63017;DHT22;50274;45.640;11.756;2022-11-25T09:12:20;11.50;66.40
63017;DHT22;50274;45.640;11.756;2022-11-25T09:14:46;11.70;66.10
63017;DHT22;50274;45.640;11.756;2022-11-25T09:17:12;11.80;65.50
63017;DHT22;50274;45.640;11.756;2022-11-25T09:19:38;12.00;64.90
63017;DHT22;50274;45.640;11.756;2022-11-25T09:22:04;12.10;64.40
63017;DHT22;50274;45.640;11.756;2022-11-25T09:24:29;12.20;64.10
63017;DHT22;50274;45.640;11.756;2022-11-25T09:26:55;12.30;63.70
63017;DHT22;50274;45.640;11.756;2022-11-25T09:29:21;12.50;63.30
63017;DHT22;50274;45.640;11.756;2022-11-25T09:31:47;12.60;62.30
63017;DHT22;50274;45.640;11.756;2022-11-25T09:34:14;12.70;62.00
63017;DHT22;50274;45.640;11.756;2022-11-25T09:36:40;12.90;61.70
63017;DHT22;50274;45.640;11.756;2022-11-25T09:39:06;13.00;61.80
63017;DHT22;50274;45.640;11.756;2022-11-25T09:48:26;13.50;59.50
63017;DHT22;50274;45.640;11.756;2022-11-25T09:51:18;13.70;58.70
63017;DHT22;50274;45.640;11.756;2022-11-25T09:53:54;13.70;57.90
63017;DHT22;50274;45.640;11.756;2022-11-25T09:56:50;13.80;58.30
63017;DHT22;50274;45.640;11.756;2022-11-25T09:59:38;13.80;57.70
63017;DHT22;50274;45.640;11.756;2022-11-25T10:05:01;13.90;57.50
63017;DHT22;50274;45.640;11.756;2022-11-25T10:07:37;13.80;57.60
63017;DHT22;50274;45.640;11.756;2022-11-25T10:10:06;13.70;57.70
63017;DHT22;50274;45.640;11.756;2022-11-25T10:12:39;13.60;58.00
63017;DHT22;50274;45.640;11.756;2022-11-25T10:15:32;13.40;58.30
63017;DHT22;50274;45.640;11.756;2022-11-25T10:18:26;13.30;58.60
63017;DHT22;50274;45.640;11.756;2022-11-25T10:20:54;13.20;59.00
63017;DHT22;50274;45.640;11.756;2022-11-25T10:23:35;13.10;59.40
63017;DHT22;50274;45.640;11.756;2022-11-25T10:26:11;13.00;59.90
63017;DHT22;50274;45.640;11.756;2022-11-25T10:28:40;13.00;60.10
63017;DHT22;50274;45.640;11.756;2022-11-25T10:31:22;13.00;60.20
63017;DHT22;50274;45.640;11.756;2022-11-25T10:33:52;13.00;60.40
63017;DHT22;50274;45.640;11.756;2022-11-25T10:39:01;12.90;60.50
63017;DHT22;50274;45.640;11.756;2022-11-25T10:42:17;12.80;60.60
63017;DHT22;50274;45.640;11.756;2022-11-25T10:44:29;12.80;60.80
63017;DHT22;50274;45.640;11.756;2022-11-25T10:52:57;12.70;61.90
63017;DHT22;50274;45.640;11.756;2022-11-25T10:55:32;12.70;62.20
63017;DHT22;50274;45.640;11.756;2022-11-25T10:58:18;12.70;62.40
63017;DHT22;50274;45.640;11.756;2022-11-25T11:00:44;12.70;62.60
63017;DHT22;50274;45.640;11.756;2022-11-25T11:03:24;12.70;62.70
63017;DHT22;50274;45.640;11.756;2022-11-25T11:05:52;12.70;62.90
63017;DHT22;50274;45.640;11.756;2022-11-25T11:08:24;12.70;63.00
63017;DHT22;50274;45.640;11.756;2022-11-25T11:11:18;12.70;63.10
63017;DHT22;50274;45.640;11.756;2022-11-25T11:13:45;12.70;63.30
63017;DHT22;50274;45.640;11.756;2022-11-25T11:16:38;12.70;63.40
63017;DHT22;50274;45.640;11.756;2022-11-25T11:19:05;12.70;63.60
63017;DHT22;50274;45.640;11.756;2022-11-25T11:21:37;12.70;63.70
63017;DHT22;50274;45.640;11.756;2022-11-25T11:24:31;12.80;63.90
63017;DHT22;50274;45.640;11.756;2022-11-25T11:27:23;12.80;63.90
63017;DHT22;50274;45.640;11.756;2022-11-25T11:30:08;12.90;64.00
63017;DHT22;50274;45.640;11.756;2022-11-25T11:32:38;12.90;64.10
63017;DHT22;50274;45.640;11.756;2022-11-25T11:38:12;13.10;64.20
63017;DHT22;50274;45.640;11.756;2022-11-25T11:40:46;13.20;64.60
63017;DHT22;50274;45.640;11.756;2022-11-25T11:46:19;13.70;64.30
63017;DHT22;50274;45.640;11.756;2022-11-25T11:51:57;14.50;63.10
63017;DHT22;50274;45.640;11.756;2022-11-25T11:54:34;14.90;62.10
63017;DHT22;50274;45.640;11.756;2022-11-25T11:57:06;15.20;60.90
63017;DHT22;50274;45.640;11.756;2022-11-25T12:00:02;15.60;60.40
63017;DHT22;50274;45.640;11.756;2022-11-25T12:10:46;16.20;58.10
63017;DHT22;50274;45.640;11.756;2022-11-25T12:13:25;16.40;57.40
63017;DHT22;50274;45.640;11.756;2022-11-25T12:16:07;16.50;56.60
63017;DHT22;50274;45.640;11.756;2022-11-25T12:18:40;16.60;56.40
63017;DHT22;50274;45.640;11.756;2022-11-25T12:24:57;16.70;56.10
63017;DHT22;50274;45.640;11.756;2022-11-25T12:27:35;16.80;55.80
63017;DHT22;50274;45.640;11.756;2022-11-25T12:32:50;16.70;56.10
63017;DHT22;50274;45.640;11.756;2022-11-25T12:38:24;16.80;56.30
63017;DHT22;50274;45.640;11.756;2022-11-25T12:46:47;17.00;55.60
63017;DHT22;50274;45.640;11.756;2022-11-25T12:49:21;16.90;55.50
63017;DHT22;50274;45.640;11.756;2022-11-25T13:00:22;17.00;55.30
63017;DHT22;50274;45.640;11.756;2022-11-25T13:15:17;16.90;54.70
63017;DHT22;50274;45.640;11.756;2022-11-25T13:17:45;16.90;55.20
63017;DHT22;50274;45.640;11.756;2022-11-25T13:20:42;16.80;55.60
63017;DHT22;50274;45.640;11.756;2022-11-25T13:25:39;16.90;55.90
63017;DHT22;50274;45.640;11.756;2022-11-25T13:30:53;16.90;55.40
63017;DHT22;50274;45.640;11.756;2022-11-25T13:35:53;16.90;55.70
63017;DHT22;50274;45.640;11.756;2022-11-25T13:41:01;16.60;56.20
63017;DHT22;50274;45.640;11.756;2022-11-25T13:43:27;16.60;56.40
63017;DHT22;50274;45.640;11.756;2022-11-25T13:45:54;16.50;56.70
63017;DHT22;50274;45.640;11.756;2022-11-25T13:48:26;16.40;56.60
63017;DHT22;50274;45.640;11.756;2022-11-25T13:51:16;16.30;56.80
63017;DHT22;50274;45.640;11.756;2022-11-25T13:53:53;16.00;57.10
63017;DHT22;50274;45.640;11.756;2022-11-25T14:01:33;15.50;58.40
63017;DHT22;50274;45.640;11.756;2022-11-25T14:03:59;15.40;58.60
63017;DHT22;50274;45.640;11.756;2022-11-25T14:27:46;14.30;61.50
63017;DHT22;50274;45.640;11.756;2022-11-25T14:30:14;14.20;61.70
63017;DHT22;50274;45.640;11.756;2022-11-25T14:32:50;14.10;62.00
63017;DHT22;50274;45.640;11.756;2022-11-25T14:35:39;14.10;62.20
63017;DHT22;50274;45.640;11.756;2022-11-25T14:38:16;14.00;62.40
63017;DHT22;50274;45.640;11.756;2022-11-25T14:43:29;13.80;62.90
63017;DHT22;50274;45.640;11.756;2022-11-25T14:46:21;13.80;63.20
63017;DHT22;50274;45.640;11.756;2022-11-25T14:49:01;13.70;63.40
63017;DHT22;50274;45.640;11.756;2022-11-25T14:51:33;13.60;63.60
63017;DHT22;50274;45.640;11.756;2022-11-25T14:53:59;13.60;63.90
63017;DHT22;50274;45.640;11.756;2022-11-25T14:56:28;13.50;64.10
63017;DHT22;50274;45.640;11.756;2022-11-25T14:58:56;13.40;64.30
63017;DHT22;50274;45.640;11.756;2022-11-25T15:01:30;13.40;64.50
63017;DHT22;50274;45.640;11.756;2022-11-25T15:06:39;13.20;65.10
63017;DHT22;50274;45.640;11.756;2022-11-25T15:09:25;13.10;65.40
63017;DHT22;50274;45.640;11.756;2022-11-25T15:12:05;13.00;65.80
63017;DHT22;50274;45.640;11.756;2022-11-25T15:14:33;12.90;65.90
63017;DHT22;50274;45.640;11.756;2022-11-25T15:17:04;12.80;66.00
63017;DHT22;50274;45.640;11.756;2022-11-25T15:19:33;12.80;66.20
63017;DHT22;50274;45.640;11.756;2022-11-25T15:22:02;12.70;66.40
63017;DHT22;50274;45.640;11.756;2022-11-25T15:27:00;12.60;66.60
63017;DHT22;50274;45.640;11.756;2022-11-25T15:29:30;12.50;66.80
63017;DHT22;50274;45.640;11.756;2022-11-25T15:31:57;12.50;66.90
63017;DHT22;50274;45.640;11.756;2022-11-25T15:34:24;12.40;67.00
63017;DHT22;50274;45.640;11.756;2022-11-25T15:36:52;12.30;67.20
63017;DHT22;50274;45.640;11.756;2022-11-25T15:41:53;12.20;67.40
63017;DHT22;50274;45.640;11.756;2022-11-25T15:44:32;12.10;67.60
63017;DHT22;50274;45.640;11.756;2022-11-25T15:47:05;12.00;67.80
63017;DHT22;50274;45.640;11.756;2022-11-25T15:49:32;12.00;67.90
63017;DHT22;50274;45.640;11.756;2022-11-25T15:52:03;11.90;68.00
63017;DHT22;50274;45.640;11.756;2022-11-25T15:54:44;11.80;68.00
63017;DHT22;50274;45.640;11.756;2022-11-25T15:57:34;11.80;68.20
63017;DHT22;50274;45.640;11.756;2022-11-25T16:16:21;11.30;69.00
63017;DHT22;50274;45.640;11.756;2022-11-25T16:19:10;11.30;69.20
63017;DHT22;50274;45.640;11.756;2022-11-25T16:21:41;11.30;69.10
63017;DHT22;50274;45.640;11.756;2022-11-25T16:26:53;11.10;69.40
63017;DHT22;50274;45.640;11.756;2022-11-25T16:29:37;11.10;69.40
63017;DHT22;50274;45.640;11.756;2022-11-25T16:32:17;11.10;69.50
63017;DHT22;50274;45.640;11.756;2022-11-25T16:34:43;11.00;69.60
63017;DHT22;50274;45.640;11.756;2022-11-25T16:37:09;10.90;69.60
63017;DHT22;50274;45.640;11.756;2022-11-25T16:39:36;10.90;69.70
63017;DHT22;50274;45.640;11.756;2022-11-25T16:42:03;10.90;69.70
63017;DHT22;50274;45.640;11.756;2022-11-25T16:44:31;10.80;69.80
63017;DHT22;50274;45.640;11.756;2022-11-25T16:46:58;10.70;70.00
63017;DHT22;50274;45.640;11.756;2022-11-25T16:49:25;10.70;70.10
63017;DHT22;50274;45.640;11.756;2022-11-25T16:51:51;10.60;70.20
63017;DHT22;50274;45.640;11.756;2022-11-25T16:54:18;10.60;70.20
63017;DHT22;50274;45.640;11.756;2022-11-25T16:56:48;10.50;70.40
63017;DHT22;50274;45.640;11.756;2022-11-25T16:59:21;10.50;70.40
63017;DHT22;50274;45.640;11.756;2022-11-25T17:01:50;10.40;70.50
63017;DHT22;50274;45.640;11.756;2022-11-25T17:04:17;10.40;70.60
63017;DHT22;50274;45.640;11.756;2022-11-25T17:06:43;10.40;70.60
63017;DHT22;50274;45.640;11.756;2022-11-25T17:09:10;10.30;70.60
63017;DHT22;50274;45.640;11.756;2022-11-25T17:11:42;10.30;70.70
63017;DHT22;50274;45.640;11.756;2022-11-25T17:14:23;10.30;70.70
63017;DHT22;50274;45.640;11.756;2022-11-25T17:16:52;10.20;70.80
63017;DHT22;50274;45.640;11.756;2022-11-25T17:19:18;10.20;70.80
63017;DHT22;50274;45.640;11.756;2022-11-25T17:21:44;10.20;70.90
63017;DHT22;50274;45.640;11.756;2022-11-25T17:24:15;10.20;70.90
63017;DHT22;50274;45.640;11.756;2022-11-25T17:26:43;10.10;70.90
63017;DHT22;50274;45.640;11.756;2022-11-25T17:29:15;10.10;71.00
63017;DHT22;50274;45.640;11.756;2022-11-25T17:31:41;10.00;71.10
63017;DHT22;50274;45.640;11.756;2022-11-25T17:34:13;10.00;71.10
63017;DHT22;50274;45.640;11.756;2022-11-25T17:36:41;10.00;71.10
63017;DHT22;50274;45.640;11.756;2022-11-25T17:39:09;10.00;71.10
63017;DHT22;50274;45.640;11.756;2022-11-25T17:41:39;10.00;71.10
63017;DHT22;50274;45.640;11.756;2022-11-25T17:46:45;9.90;70.90
63017;DHT22;50274;45.640;11.756;2022-11-25T17:49:14;9.90;70.90
63017;DHT22;50274;45.640;11.756;2022-11-25T17:51:41;9.90;70.90
63017;DHT22;50274;45.640;11.756;2022-11-25T17:54:07;9.90;70.80
63017;DHT22;50274;45.640;11.756;2022-11-25T17:56:33;9.80;70.70
63017;DHT22;50274;45.640;11.756;2022-11-25T17:59:04;9.90;70.60
63017;DHT22;50274;45.640;11.756;2022-11-25T18:01:30;9.80;70.50
63017;DHT22;50274;45.640;11.756;2022-11-25T18:03:56;9.80;70.30
63017;DHT22;50274;45.640;11.756;2022-11-25T18:06:22;9.70;70.20
63017;DHT22;50274;45.640;11.756;2022-11-25T18:08:48;9.70;70.40
63017;DHT22;50274;45.640;11.756;2022-11-25T18:11:16;9.70;70.40
63017;DHT22;50274;45.640;11.756;2022-11-25T18:13:45;9.60;69.90
63017;DHT22;50274;45.640;11.756;2022-11-25T18:16:12;9.60;69.90
63017;DHT22;50274;45.640;11.756;2022-11-25T18:18:39;9.50;69.90
63017;DHT22;50274;45.640;11.756;2022-11-25T18:21:05;9.50;70.00